createdAt,value
2018-09-15T00:00:28.877Z,1014.47
2018-09-15T00:01:28.875Z,1014.46
2018-09-15T00:02:28.875Z,1014.46
2018-09-15T00:03:28.870Z,1014.45
2018-09-15T00:04:28.872Z,1014.48
2018-09-15T00:05:28.875Z,1014.44
2018-09-15T00:06:28.874Z,1014.45
2018-09-15T00:07:28.868Z,1014.43
2018-09-15T00:08:28.869Z,1014.42
2018-09-15T00:09:28.872Z,1014.45
2018-09-15T00:10:28.867Z,1014.42
2018-09-15T00:11:28.869Z,1014.42
2018-09-15T00:12:28.865Z,1014.39
2018-09-15T00:13:28.864Z,1014.42
2018-09-15T00:14:28.864Z,1014.45
2018-09-15T00:15:28.860Z,1014.43
2018-09-15T00:16:28.860Z,1014.41
2018-09-15T00:17:28.859Z,1014.41
2018-09-15T00:18:28.859Z,1014.44
2018-09-15T00:19:28.978Z,1014.42
2018-09-15T00:20:28.863Z,1014.37
2018-09-15T00:21:28.854Z,1014.39
2018-09-15T00:22:28.852Z,1014.41
2018-09-15T00:23:28.852Z,1014.41
2018-09-15T00:24:28.856Z,1014.39
2018-09-15T00:25:28.850Z,1014.39
2018-09-15T00:26:28.847Z,1014.39
2018-09-15T00:27:28.852Z,1014.38
2018-09-15T00:28:28.848Z,1014.39
2018-09-15T00:29:28.843Z,1014.38
2018-09-15T00:30:28.846Z,1014.38
2018-09-15T00:31:28.843Z,1014.39
2018-09-15T00:32:28.840Z,1014.40
2018-09-15T00:33:28.839Z,1014.41
2018-09-15T00:34:28.846Z,1014.38
2018-09-15T00:35:28.840Z,1014.37
2018-09-15T00:36:28.838Z,1014.39
2018-09-15T00:37:28.837Z,1014.35
2018-09-15T00:38:28.833Z,1014.33
2018-09-15T00:39:28.835Z,1014.29
2018-09-15T00:40:28.831Z,1014.31
2018-09-15T00:41:28.830Z,1014.29
2018-09-15T00:42:28.827Z,1014.27
2018-09-15T00:43:28.829Z,1014.27
2018-09-15T00:44:28.824Z,1014.23
2018-09-15T00:45:28.824Z,1014.26
2018-09-15T00:46:28.822Z,1014.25
2018-09-15T00:47:28.825Z,1014.28
2018-09-15T00:48:28.822Z,1014.26
2018-09-15T00:49:28.817Z,1014.22
2018-09-15T00:50:28.816Z,1014.23
2018-09-15T00:51:28.813Z,1014.22
2018-09-15T00:52:28.811Z,1014.25
2018-09-15T00:53:28.808Z,1014.20
2018-09-15T00:54:28.810Z,1014.23
2018-09-15T00:55:28.806Z,1014.24
2018-09-15T00:56:28.803Z,1014.21
2018-09-15T00:57:28.806Z,1014.22
2018-09-15T00:58:28.801Z,1014.20
2018-09-15T00:59:28.799Z,1014.22
2018-09-15T01:00:28.800Z,1014.21
2018-09-15T01:01:28.797Z,1014.22
2018-09-15T01:02:28.797Z,1014.27
2018-09-15T01:03:28.792Z,1014.23
2018-09-15T01:04:28.791Z,1014.24
2018-09-15T01:05:28.794Z,1014.25
2018-09-15T01:06:28.786Z,1014.20
2018-09-15T01:07:28.785Z,1014.26
2018-09-15T01:08:28.784Z,1014.22
2018-09-15T01:09:28.781Z,1014.21
2018-09-15T01:10:28.780Z,1014.21
2018-09-15T01:11:28.778Z,1014.20
2018-09-15T01:12:28.776Z,1014.18
2018-09-15T01:13:28.774Z,1014.21
2018-09-15T01:14:28.814Z,1014.21
2018-09-15T01:15:28.769Z,1014.21
2018-09-15T01:16:28.768Z,1014.18
2018-09-15T01:17:28.763Z,1014.15
2018-09-15T01:18:28.764Z,1014.13
2018-09-15T01:19:28.765Z,1014.18
2018-09-15T01:20:28.764Z,1014.14
2018-09-15T01:21:28.760Z,1014.14
2018-09-15T01:22:28.757Z,1014.14
2018-09-15T01:23:28.754Z,1014.13
2018-09-15T01:24:28.757Z,1014.09
2018-09-15T01:25:28.751Z,1014.11
2018-09-15T01:26:28.751Z,1014.12
2018-09-15T01:27:28.746Z,1014.07
2018-09-15T01:28:28.739Z,1014.10
2018-09-15T01:29:28.744Z,1014.09
2018-09-15T01:30:29.304Z,1014.08
2018-09-15T01:31:28.739Z,1014.12
2018-09-15T01:32:28.737Z,1014.09
2018-09-15T01:33:28.734Z,1014.13
2018-09-15T01:34:28.733Z,1014.12
2018-09-15T01:35:28.729Z,1014.16
2018-09-15T01:36:28.732Z,1014.16
2018-09-15T01:37:28.727Z,1014.17
2018-09-15T01:38:28.730Z,1014.18
2018-09-15T01:39:28.722Z,1014.19
2018-09-15T01:40:28.719Z,1014.12
2018-09-15T01:41:28.718Z,1014.08
2018-09-15T01:42:28.716Z,1014.10
2018-09-15T01:43:28.716Z,1014.08
2018-09-15T01:44:28.715Z,1014.12
2018-09-15T01:45:28.710Z,1014.14
2018-09-15T01:46:28.710Z,1014.13
2018-09-15T01:47:28.705Z,1014.14
2018-09-15T01:48:28.704Z,1014.08
2018-09-15T01:49:28.701Z,1014.08
2018-09-15T01:50:28.707Z,1014.05
2018-09-15T01:51:28.699Z,1014.08
2018-09-15T01:52:28.695Z,1014.03
2018-09-15T01:53:28.694Z,1014.02
2018-09-15T01:54:28.691Z,1014.04
2018-09-15T01:55:28.684Z,1014.05
2018-09-15T01:56:28.687Z,1014.06
2018-09-15T01:57:28.707Z,1014.11
2018-09-15T01:58:28.683Z,1014.08
2018-09-15T01:59:28.681Z,1014.12
2018-09-15T02:00:28.679Z,1014.11
2018-09-15T02:01:28.675Z,1014.13
2018-09-15T02:02:28.675Z,1014.13
2018-09-15T02:03:29.387Z,1014.14
2018-09-15T02:04:28.670Z,1014.15
2018-09-15T02:05:28.672Z,1014.17
2018-09-15T02:06:28.665Z,1014.17
2018-09-15T02:07:28.662Z,1014.21
2018-09-15T02:08:28.700Z,1014.22
2018-09-15T02:09:28.660Z,1014.26
2018-09-15T02:10:28.657Z,1014.31
2018-09-15T02:11:28.653Z,1014.26
2018-09-15T02:12:28.656Z,1014.29
2018-09-15T02:13:28.650Z,1014.28
2018-09-15T02:14:28.646Z,1014.31
2018-09-15T02:15:28.646Z,1014.30
2018-09-15T02:16:28.642Z,1014.27
2018-09-15T02:17:28.640Z,1014.29
2018-09-15T02:18:28.639Z,1014.29
2018-09-15T02:19:28.639Z,1014.27
2018-09-15T02:20:28.633Z,1014.29
2018-09-15T02:21:28.632Z,1014.27
2018-09-15T02:22:28.641Z,1014.29
2018-09-15T02:23:28.627Z,1014.27
2018-09-15T02:24:28.623Z,1014.24
2018-09-15T02:25:28.622Z,1014.27
2018-09-15T02:26:28.619Z,1014.29
2018-09-15T02:27:28.615Z,1014.29
2018-09-15T02:28:28.612Z,1014.26
2018-09-15T02:29:28.614Z,1014.28
2018-09-15T02:30:28.611Z,1014.31
2018-09-15T02:31:28.608Z,1014.28
2018-09-15T02:32:28.604Z,1014.26
2018-09-15T02:33:28.602Z,1014.27
2018-09-15T02:34:28.600Z,1014.26
2018-09-15T02:35:28.597Z,1014.25
2018-09-15T02:36:28.601Z,1014.25
2018-09-15T02:37:28.592Z,1014.24
2018-09-15T02:38:28.591Z,1014.26
2018-09-15T02:39:28.585Z,1014.26
2018-09-15T02:40:28.584Z,1014.26
2018-09-15T02:41:28.584Z,1014.25
2018-09-15T02:42:28.577Z,1014.23
2018-09-15T02:43:28.573Z,1014.24
2018-09-15T02:44:28.578Z,1014.22
2018-09-15T02:45:28.570Z,1014.20
2018-09-15T02:46:28.568Z,1014.22
2018-09-15T02:47:28.568Z,1014.22
2018-09-15T02:48:28.564Z,1014.22
2018-09-15T02:49:28.562Z,1014.19
2018-09-15T02:50:28.556Z,1014.25
2018-09-15T02:51:28.556Z,1014.25
2018-09-15T02:52:28.555Z,1014.27
2018-09-15T02:53:28.549Z,1014.27
2018-09-15T02:54:28.549Z,1014.29
2018-09-15T02:55:28.544Z,1014.26
2018-09-15T02:56:28.541Z,1014.29
2018-09-15T02:57:28.538Z,1014.29
2018-09-15T02:58:28.538Z,1014.27
2018-09-15T02:59:28.530Z,1014.29
2018-09-15T03:00:28.532Z,1014.31
2018-09-15T03:01:28.528Z,1014.32
2018-09-15T03:02:28.523Z,1014.32
2018-09-15T03:03:28.522Z,1014.32
2018-09-15T03:04:28.523Z,1014.32
2018-09-15T03:05:28.518Z,1014.28
2018-09-15T03:06:28.514Z,1014.25
2018-09-15T03:07:28.512Z,1014.24
2018-09-15T03:08:28.508Z,1014.21
2018-09-15T03:09:28.504Z,1014.23
2018-09-15T03:10:28.502Z,1014.22
2018-09-15T03:11:28.498Z,1014.22
2018-09-15T03:12:28.494Z,1014.26
2018-09-15T03:13:28.495Z,1014.24
2018-09-15T03:14:28.491Z,1014.24
2018-09-15T03:15:28.488Z,1014.24
2018-09-15T03:16:28.489Z,1014.25
2018-09-15T03:17:28.481Z,1014.23
2018-09-15T03:18:28.481Z,1014.23
2018-09-15T03:19:28.475Z,1014.22
2018-09-15T03:20:28.472Z,1014.26
2018-09-15T03:21:28.469Z,1014.25
2018-09-15T03:22:28.478Z,1014.26
2018-09-15T03:23:28.462Z,1014.22
2018-09-15T03:24:28.460Z,1014.23
2018-09-15T03:25:28.454Z,1014.25
2018-09-15T03:26:28.455Z,1014.21
2018-09-15T03:27:28.452Z,1014.23
2018-09-15T03:28:28.455Z,1014.22
2018-09-15T03:29:28.451Z,1014.24
2018-09-15T03:30:28.451Z,1014.19
2018-09-15T03:31:28.437Z,1014.27
2018-09-15T03:32:28.438Z,1014.34
2018-09-15T03:33:28.430Z,1014.32
2018-09-15T03:34:28.434Z,1014.32
2018-09-15T03:35:28.426Z,1014.31
2018-09-15T03:36:28.423Z,1014.36
2018-09-15T03:37:28.420Z,1014.28
2018-09-15T03:38:28.419Z,1014.36
2018-09-15T03:39:28.415Z,1014.34
2018-09-15T03:40:28.412Z,1014.30
2018-09-15T03:41:28.488Z,1014.31
2018-09-15T03:42:28.404Z,1014.32
2018-09-15T03:43:28.403Z,1014.31
2018-09-15T03:44:28.398Z,1014.36
2018-09-15T03:45:28.395Z,1014.39
2018-09-15T03:46:28.389Z,1014.31
2018-09-15T03:47:28.388Z,1014.34
2018-09-15T03:48:28.387Z,1014.39
2018-09-15T03:49:28.381Z,1014.37
2018-09-15T03:50:28.380Z,1014.36
2018-09-15T03:51:28.375Z,1014.41
2018-09-15T03:52:28.377Z,1014.39
2018-09-15T03:53:28.381Z,1014.39
2018-09-15T03:54:28.365Z,1014.39
2018-09-15T03:55:28.369Z,1014.40
2018-09-15T03:56:28.358Z,1014.48
2018-09-15T03:57:28.358Z,1014.39
2018-09-15T03:58:28.366Z,1014.44
2018-09-15T03:59:28.348Z,1014.45
2018-09-15T04:00:28.416Z,1014.47
2018-09-15T04:01:28.346Z,1014.48
2018-09-15T04:02:28.339Z,1014.59
2018-09-15T04:03:28.335Z,1014.61
2018-09-15T04:04:28.332Z,1014.52
2018-09-15T04:05:28.330Z,1014.55
2018-09-15T04:06:28.327Z,1014.58
2018-09-15T04:07:28.325Z,1014.61
2018-09-15T04:08:28.327Z,1014.56
2018-09-15T04:09:28.316Z,1014.56
2018-09-15T04:10:28.316Z,1014.59
2018-09-15T04:11:28.310Z,1014.56
2018-09-15T04:12:28.305Z,1014.57
2018-09-15T04:13:28.302Z,1014.59
2018-09-15T04:14:28.296Z,1014.60
2018-09-15T04:15:28.299Z,1014.62
2018-09-15T04:16:28.292Z,1014.59
2018-09-15T04:17:28.288Z,1014.56
2018-09-15T04:18:28.290Z,1014.55
2018-09-15T04:19:28.284Z,1014.56
2018-09-15T04:20:28.283Z,1014.62
2018-09-15T04:21:28.278Z,1014.66
2018-09-15T04:22:28.272Z,1014.69
2018-09-15T04:23:28.269Z,1014.70
2018-09-15T04:24:28.276Z,1014.67
2018-09-15T04:25:28.261Z,1014.73
2018-09-15T04:26:28.266Z,1014.75
2018-09-15T04:27:28.259Z,1014.72
2018-09-15T04:28:28.298Z,1014.77
2018-09-15T04:29:28.251Z,1014.73
2018-09-15T04:30:28.245Z,1014.73
2018-09-15T04:31:28.243Z,1014.71
2018-09-15T04:32:28.239Z,1014.72
2018-09-15T04:33:28.236Z,1014.77
2018-09-15T04:34:28.238Z,1014.75
2018-09-15T04:35:28.229Z,1014.77
2018-09-15T04:36:28.226Z,1014.82
2018-09-15T04:37:28.227Z,1014.79
2018-09-15T04:38:28.224Z,1014.86
2018-09-15T04:39:28.218Z,1014.90
2018-09-15T04:40:28.214Z,1014.89
2018-09-15T04:41:28.210Z,1014.89
2018-09-15T04:42:28.205Z,1014.92
2018-09-15T04:43:28.203Z,1014.92
2018-09-15T04:44:28.198Z,1014.96
2018-09-15T04:45:28.196Z,1014.95
2018-09-15T04:46:28.195Z,1014.91
2018-09-15T04:47:28.192Z,1014.94
2018-09-15T04:48:28.187Z,1014.92
2018-09-15T04:49:28.186Z,1014.95
2018-09-15T04:50:28.183Z,1014.95
2018-09-15T04:51:28.178Z,1014.97
2018-09-15T04:52:28.227Z,1014.99
2018-09-15T04:53:28.174Z,1014.99
2018-09-15T04:54:28.170Z,1014.99
2018-09-15T04:55:28.167Z,1014.99
2018-09-15T04:56:28.165Z,1015.02
2018-09-15T04:57:28.160Z,1014.99
2018-09-15T04:58:28.156Z,1014.96
2018-09-15T04:59:28.153Z,1014.98
2018-09-15T05:00:28.151Z,1014.98
2018-09-15T05:01:28.148Z,1015.01
2018-09-15T05:02:28.149Z,1015.04
2018-09-15T05:03:28.141Z,1015.07
2018-09-15T05:04:28.140Z,1015.09
2018-09-15T05:05:28.135Z,1015.11
2018-09-15T05:06:28.145Z,1015.18
2018-09-15T05:07:28.134Z,1015.17
2018-09-15T05:08:28.128Z,1015.15
2018-09-15T05:09:28.123Z,1015.13
2018-09-15T05:10:28.119Z,1015.12
2018-09-15T05:11:28.117Z,1015.12
2018-09-15T05:12:28.128Z,1015.16
2018-09-15T05:13:28.112Z,1015.16
2018-09-15T05:14:28.108Z,1015.18
2018-09-15T05:15:28.107Z,1015.22
2018-09-15T05:16:28.102Z,1015.29
2018-09-15T05:17:28.102Z,1015.26
2018-09-15T05:18:28.099Z,1015.38
2018-09-15T05:19:28.096Z,1015.36
2018-09-15T05:20:28.090Z,1015.38
2018-09-15T05:21:28.087Z,1015.37
2018-09-15T05:22:28.084Z,1015.39
2018-09-15T05:23:28.083Z,1015.41
2018-09-15T05:24:28.078Z,1015.36
2018-09-15T05:25:28.078Z,1015.39
2018-09-15T05:26:28.072Z,1015.41
2018-09-15T05:27:28.069Z,1015.43
2018-09-15T05:28:28.066Z,1015.40
2018-09-15T05:29:28.070Z,1015.41
2018-09-15T05:30:28.060Z,1015.47
2018-09-15T05:31:28.994Z,1015.51
2018-09-15T05:32:28.053Z,1015.50
2018-09-15T05:33:28.053Z,1015.41
2018-09-15T05:34:28.052Z,1015.42
2018-09-15T05:35:28.044Z,1015.43
2018-09-15T05:36:28.042Z,1015.42
2018-09-15T05:37:28.040Z,1015.42
2018-09-15T05:38:28.037Z,1015.45
2018-09-15T05:39:28.034Z,1015.48
2018-09-15T05:40:28.033Z,1015.48
2018-09-15T05:41:28.031Z,1015.52
2018-09-15T05:42:28.027Z,1015.53
2018-09-15T05:43:28.025Z,1015.57
2018-09-15T05:44:28.022Z,1015.54
2018-09-15T05:45:28.023Z,1015.59
2018-09-15T05:46:28.017Z,1015.61
2018-09-15T05:47:28.016Z,1015.59
2018-09-15T05:48:28.012Z,1015.63
2018-09-15T05:49:28.016Z,1015.65
2018-09-15T05:50:28.006Z,1015.66
2018-09-15T05:51:28.005Z,1015.69
2018-09-15T05:52:28.005Z,1015.68
2018-09-15T05:53:28.001Z,1015.68
2018-09-15T05:54:27.998Z,1015.66
2018-09-15T05:55:27.997Z,1015.68
2018-09-15T05:56:27.991Z,1015.69
2018-09-15T05:57:27.987Z,1015.69
2018-09-15T05:58:27.990Z,1015.74
2018-09-15T05:59:27.985Z,1015.76
2018-09-15T06:00:27.998Z,1015.78
2018-09-15T06:01:27.994Z,1015.79
2018-09-15T06:02:27.978Z,1015.82
2018-09-15T06:03:27.974Z,1015.80
2018-09-15T06:04:27.979Z,1015.82
2018-09-15T06:05:28.879Z,1015.81
2018-09-15T06:06:27.971Z,1015.81
2018-09-15T06:07:27.971Z,1015.85
2018-09-15T06:08:27.963Z,1015.86
2018-09-15T06:09:27.962Z,1015.90
2018-09-15T06:10:27.959Z,1015.86
2018-09-15T06:11:27.952Z,1015.90
2018-09-15T06:12:27.954Z,1015.87
2018-09-15T06:13:27.961Z,1015.90
2018-09-15T06:14:27.951Z,1015.93
2018-09-15T06:15:27.953Z,1015.87
2018-09-15T06:16:27.947Z,1015.89
2018-09-15T06:17:27.948Z,1015.91
2018-09-15T06:18:27.942Z,1015.90
2018-09-15T06:19:27.939Z,1015.91
2018-09-15T06:20:27.936Z,1015.91
2018-09-15T06:21:27.939Z,1015.90
2018-09-15T06:22:27.936Z,1015.93
2018-09-15T06:23:27.929Z,1015.92
2018-09-15T06:24:27.925Z,1015.87
2018-09-15T06:25:27.927Z,1015.91
2018-09-15T06:26:27.922Z,1015.93
2018-09-15T06:27:27.920Z,1015.91
2018-09-15T06:28:27.920Z,1015.95
2018-09-15T06:29:27.917Z,1015.94
2018-09-15T06:30:27.915Z,1015.91
2018-09-15T06:31:27.915Z,1015.95
2018-09-15T06:32:27.910Z,1015.96
2018-09-15T06:33:27.908Z,1015.98
2018-09-15T06:34:27.906Z,1016.00
2018-09-15T06:35:27.914Z,1015.99
2018-09-15T06:36:27.905Z,1016.01
2018-09-15T06:37:27.902Z,1016.00
2018-09-15T06:38:27.902Z,1016.05
2018-09-15T06:39:27.978Z,1015.98
2018-09-15T06:40:27.899Z,1016.00
2018-09-15T06:41:27.900Z,1016.01
2018-09-15T06:42:27.913Z,1016.02
2018-09-15T06:43:27.899Z,1016.07
2018-09-15T06:44:27.895Z,1016.06
2018-09-15T06:45:27.971Z,1016.07
2018-09-15T06:46:27.898Z,1016.06
2018-09-15T06:47:27.895Z,1016.07
2018-09-15T06:48:27.894Z,1016.10
2018-09-15T06:49:27.897Z,1016.09
2018-09-15T06:50:27.897Z,1016.12
2018-09-15T06:51:27.937Z,1016.12
2018-09-15T06:52:27.896Z,1016.16
2018-09-15T06:53:27.903Z,1016.16
2018-09-15T06:54:27.903Z,1016.18
2018-09-15T06:55:27.898Z,1016.19
2018-09-15T06:56:27.899Z,1016.15
2018-09-15T06:57:27.900Z,1016.22
2018-09-15T06:58:27.902Z,1016.20
2018-09-15T06:59:27.896Z,1016.15
2018-09-15T07:00:27.900Z,1016.18
2018-09-15T07:01:27.901Z,1016.21
2018-09-15T07:02:27.904Z,1016.17
2018-09-15T07:03:27.904Z,1016.15
2018-09-15T07:04:27.906Z,1016.15
2018-09-15T07:05:27.904Z,1016.13
2018-09-15T07:06:27.908Z,1016.16
2018-09-15T07:07:27.907Z,1016.17
2018-09-15T07:08:27.912Z,1016.11
2018-09-15T07:09:27.912Z,1016.17
2018-09-15T07:10:27.914Z,1016.17
2018-09-15T07:11:27.915Z,1016.13
2018-09-15T07:12:27.914Z,1016.17
2018-09-15T07:13:27.916Z,1016.21
2018-09-15T07:14:27.916Z,1016.21
2018-09-15T07:15:27.917Z,1016.21
2018-09-15T07:16:27.930Z,1016.23
2018-09-15T07:17:27.919Z,1016.23
2018-09-15T07:18:27.921Z,1016.28
2018-09-15T07:19:27.919Z,1016.25
2018-09-15T07:20:27.926Z,1016.20
2018-09-15T07:21:27.926Z,1016.19
2018-09-15T07:22:27.918Z,1016.26
2018-09-15T07:23:27.921Z,1016.25
2018-09-15T07:24:27.923Z,1016.25
2018-09-15T07:25:27.923Z,1016.26
2018-09-15T07:26:27.928Z,1016.29
2018-09-15T07:27:27.923Z,1016.27
2018-09-15T07:28:27.924Z,1016.30
2018-09-15T07:29:27.924Z,1016.26
2018-09-15T07:30:27.924Z,1016.28
2018-09-15T07:31:27.937Z,1016.32
2018-09-15T07:32:27.924Z,1016.36
2018-09-15T07:33:27.921Z,1016.39
2018-09-15T07:34:27.922Z,1016.38
2018-09-15T07:35:27.927Z,1016.38
2018-09-15T07:36:27.930Z,1016.41
2018-09-15T07:37:27.978Z,1016.44
2018-09-15T07:38:27.924Z,1016.42
2018-09-15T07:39:27.920Z,1016.40
2018-09-15T07:40:27.921Z,1016.37
2018-09-15T07:41:27.922Z,1016.43
2018-09-15T07:42:27.921Z,1016.42
2018-09-15T07:43:27.919Z,1016.40
2018-09-15T07:44:27.921Z,1016.43
2018-09-15T07:45:27.919Z,1016.43
2018-09-15T07:46:27.920Z,1016.48
2018-09-15T07:47:27.918Z,1016.49
2018-09-15T07:48:27.916Z,1016.48
2018-09-15T07:49:27.916Z,1016.50
2018-09-15T07:50:27.919Z,1016.49
2018-09-15T07:51:28.519Z,1016.52
2018-09-15T07:52:27.911Z,1016.55
2018-09-15T07:53:27.912Z,1016.55
2018-09-15T07:54:27.912Z,1016.57
2018-09-15T07:55:27.912Z,1016.59
2018-09-15T07:56:27.910Z,1016.56
2018-09-15T07:57:27.941Z,1016.55
2018-09-15T07:58:28.412Z,1016.61
2018-09-15T07:59:27.907Z,1016.57
2018-09-15T08:00:27.907Z,1016.59
2018-09-15T08:01:27.906Z,1016.59
2018-09-15T08:02:27.906Z,1016.62
2018-09-15T08:03:27.904Z,1016.59
2018-09-15T08:04:27.904Z,1016.63
2018-09-15T08:05:27.903Z,1016.65
2018-09-15T08:06:27.902Z,1016.64
2018-09-15T08:07:27.900Z,1016.66
2018-09-15T08:08:27.902Z,1016.62
2018-09-15T08:09:27.900Z,1016.61
2018-09-15T08:10:27.900Z,1016.62
2018-09-15T08:11:28.487Z,1016.64
2018-09-15T08:12:27.927Z,1016.62
2018-09-15T08:13:27.897Z,1016.69
2018-09-15T08:14:27.898Z,1016.68
2018-09-15T08:15:27.894Z,1016.69
2018-09-15T08:16:27.893Z,1016.70
2018-09-15T08:17:27.897Z,1016.68
2018-09-15T08:18:27.889Z,1016.81
2018-09-15T08:19:27.894Z,1016.81
2018-09-15T08:20:27.892Z,1016.83
2018-09-15T08:21:27.891Z,1016.79
2018-09-15T08:22:27.892Z,1016.71
2018-09-15T08:23:27.894Z,1016.78
2018-09-15T08:24:27.889Z,1016.82
2018-09-15T08:25:27.888Z,1016.75
2018-09-15T08:26:27.980Z,1016.84
2018-09-15T08:27:27.902Z,1016.81
2018-09-15T08:28:27.884Z,1016.84
2018-09-15T08:29:27.882Z,1016.81
2018-09-15T08:30:27.885Z,1016.85
2018-09-15T08:31:27.881Z,1016.90
2018-09-15T08:32:27.883Z,1016.89
2018-09-15T08:33:27.881Z,1016.88
2018-09-15T08:34:27.888Z,1016.91
2018-09-15T08:35:27.879Z,1016.93
2018-09-15T08:36:28.422Z,1016.94
2018-09-15T08:37:27.885Z,1017.01
2018-09-15T08:38:27.883Z,1016.98
2018-09-15T08:39:27.876Z,1016.92
2018-09-15T08:40:27.876Z,1016.95
2018-09-15T08:41:27.922Z,1016.93
2018-09-15T08:42:27.875Z,1016.97
2018-09-15T08:43:27.874Z,1016.98
2018-09-15T08:44:27.873Z,1016.97
2018-09-15T08:45:27.872Z,1017.01
2018-09-15T08:46:27.873Z,1016.94
2018-09-15T08:47:27.869Z,1016.98
2018-09-15T08:48:27.869Z,1016.94
2018-09-15T08:49:27.870Z,1017.00
2018-09-15T08:50:27.873Z,1016.98
2018-09-15T08:51:27.867Z,1017.04
2018-09-15T08:52:27.867Z,1016.97
2018-09-15T08:53:27.868Z,1017.02
2018-09-15T08:54:27.869Z,1017.05
2018-09-15T08:55:28.430Z,1017.02
2018-09-15T08:56:27.866Z,1017.00
2018-09-15T08:57:27.863Z,1016.96
2018-09-15T08:58:27.865Z,1016.99
2018-09-15T08:59:27.861Z,1017.00
2018-09-15T09:00:27.861Z,1017.00
2018-09-15T09:01:27.861Z,1017.01
2018-09-15T09:02:27.863Z,1017.02
2018-09-15T09:03:27.864Z,1017.00
2018-09-15T09:04:27.859Z,1017.00
2018-09-15T09:05:27.859Z,1017.01
2018-09-15T09:06:27.858Z,1016.93
2018-09-15T09:07:27.858Z,1016.98
2018-09-15T09:08:27.856Z,1016.97
2018-09-15T09:09:27.855Z,1016.95
2018-09-15T09:10:27.853Z,1017.00
2018-09-15T09:11:27.859Z,1016.94
2018-09-15T09:12:27.854Z,1016.97
2018-09-15T09:13:27.853Z,1016.97
2018-09-15T09:14:27.854Z,1016.99
2018-09-15T09:15:27.852Z,1017.00
2018-09-15T09:16:28.436Z,1016.96
2018-09-15T09:17:27.852Z,1017.00
2018-09-15T09:18:27.852Z,1017.02
2018-09-15T09:19:27.895Z,1016.99
2018-09-15T09:20:27.851Z,1017.02
2018-09-15T09:21:27.852Z,1017.05
2018-09-15T09:22:27.852Z,1016.98
2018-09-15T09:23:27.861Z,1017.05
2018-09-15T09:24:27.851Z,1016.94
2018-09-15T09:25:27.853Z,1017.00
2018-09-15T09:26:27.923Z,1017.03
2018-09-15T09:27:27.850Z,1017.03
2018-09-15T09:28:28.438Z,1016.95
2018-09-15T09:29:27.850Z,1016.95
2018-09-15T09:30:28.441Z,1016.94
2018-09-15T09:31:27.847Z,1016.95
2018-09-15T09:32:27.942Z,1016.95
2018-09-15T09:33:27.854Z,1016.93
2018-09-15T09:34:27.849Z,1016.84
2018-09-15T09:35:27.849Z,1016.95
2018-09-15T09:36:27.848Z,1016.98
2018-09-15T09:37:27.846Z,1016.92
2018-09-15T09:38:27.953Z,1016.85
2018-09-15T09:39:27.849Z,1016.87
2018-09-15T09:40:27.851Z,1016.90
2018-09-15T09:41:27.913Z,1016.92
2018-09-15T09:42:27.850Z,1016.87
2018-09-15T09:43:27.853Z,1016.92
2018-09-15T09:44:27.852Z,1016.98
2018-09-15T09:45:27.849Z,1016.99
2018-09-15T09:46:27.854Z,1016.95
2018-09-15T09:47:27.852Z,1016.92
2018-09-15T09:48:27.850Z,1016.94
2018-09-15T09:49:27.857Z,1016.98
2018-09-15T09:50:27.854Z,1016.93
2018-09-15T09:51:27.851Z,1016.89
2018-09-15T09:52:27.851Z,1016.92
2018-09-15T09:53:27.851Z,1016.97
2018-09-15T09:54:27.852Z,1016.95
2018-09-15T09:55:27.849Z,1016.96
2018-09-15T09:56:27.855Z,1016.89
2018-09-15T09:57:27.854Z,1016.91
2018-09-15T09:58:27.856Z,1016.88
2018-09-15T09:59:27.851Z,1016.91
2018-09-15T10:00:27.854Z,1016.96
2018-09-15T10:01:27.854Z,1016.93
2018-09-15T10:02:27.855Z,1016.99
2018-09-15T10:03:27.854Z,1017.00
2018-09-15T10:04:27.856Z,1017.04
2018-09-15T10:05:27.853Z,1016.98
2018-09-15T10:06:27.859Z,1017.00
2018-09-15T10:07:27.855Z,1016.98
2018-09-15T10:08:27.855Z,1016.97
2018-09-15T10:09:27.859Z,1016.97
2018-09-15T10:10:27.866Z,1016.98
2018-09-15T10:11:27.857Z,1016.92
2018-09-15T10:12:27.858Z,1017.01
2018-09-15T10:13:27.859Z,1017.06
2018-09-15T10:14:27.860Z,1016.80
2018-09-15T10:15:27.859Z,1017.06
2018-09-15T10:16:27.856Z,1017.11
2018-09-15T10:17:27.860Z,1017.07
2018-09-15T10:18:27.866Z,1017.06
2018-09-15T10:19:27.862Z,1017.05
2018-09-15T10:20:27.863Z,1017.06
2018-09-15T10:21:27.875Z,1017.10
2018-09-15T10:22:27.864Z,1017.12
2018-09-15T10:23:27.865Z,1017.09
2018-09-15T10:24:27.864Z,1017.12
2018-09-15T10:25:27.872Z,1017.13
2018-09-15T10:26:27.867Z,1017.10
2018-09-15T10:27:27.869Z,1017.10
2018-09-15T10:28:27.868Z,1017.13
2018-09-15T10:29:27.869Z,1017.12
2018-09-15T10:30:27.870Z,1017.11
2018-09-15T10:31:27.870Z,1017.06
2018-09-15T10:32:27.872Z,1017.09
2018-09-15T10:33:27.872Z,1017.10
2018-09-15T10:34:27.871Z,1017.10
2018-09-15T10:35:28.461Z,1017.14
2018-09-15T10:36:27.874Z,1017.16
2018-09-15T10:37:27.883Z,1017.12
2018-09-15T10:38:27.942Z,1017.13
2018-09-15T10:39:27.877Z,1017.10
2018-09-15T10:40:27.961Z,1017.15
2018-09-15T10:41:27.880Z,1017.09
2018-09-15T10:42:27.884Z,1017.06
2018-09-15T10:43:27.882Z,1017.05
2018-09-15T10:44:27.884Z,1017.11
2018-09-15T10:45:27.885Z,1017.06
2018-09-15T10:46:27.884Z,1017.02
2018-09-15T10:47:27.887Z,1017.04
2018-09-15T10:48:27.888Z,1016.99
2018-09-15T10:49:27.889Z,1017.05
2018-09-15T10:50:27.889Z,1016.97
2018-09-15T10:51:27.890Z,1017.03
2018-09-15T10:52:28.545Z,1017.02
2018-09-15T10:53:27.917Z,1017.07
2018-09-15T10:54:27.896Z,1017.03
2018-09-15T10:55:27.897Z,1017.02
2018-09-15T10:56:27.899Z,1017.10
2018-09-15T10:57:27.901Z,1016.98
2018-09-15T10:58:28.468Z,1017.04
2018-09-15T10:59:27.900Z,1016.97
2018-09-15T11:00:27.971Z,1016.92
2018-09-15T11:01:27.903Z,1016.90
2018-09-15T11:02:27.909Z,1016.99
2018-09-15T11:03:27.908Z,1016.95
2018-09-15T11:04:27.909Z,1016.92
2018-09-15T11:05:27.907Z,1016.98
2018-09-15T11:06:27.912Z,1016.93
2018-09-15T11:07:27.912Z,1016.94
2018-09-15T11:08:27.913Z,1016.98
2018-09-15T11:09:27.912Z,1017.00
2018-09-15T11:10:27.915Z,1017.00
2018-09-15T11:11:27.915Z,1017.01
2018-09-15T11:12:27.917Z,1017.01
2018-09-15T11:13:28.005Z,1017.05
2018-09-15T11:14:27.921Z,1017.01
2018-09-15T11:15:27.924Z,1017.02
2018-09-15T11:16:27.922Z,1016.98
2018-09-15T11:17:27.924Z,1016.96
2018-09-15T11:18:27.933Z,1016.93
2018-09-15T11:19:27.926Z,1016.90
2018-09-15T11:20:27.931Z,1016.97
2018-09-15T11:21:27.925Z,1016.93
2018-09-15T11:22:27.992Z,1016.93
2018-09-15T11:23:27.934Z,1016.98
2018-09-15T11:24:27.934Z,1016.98
2018-09-15T11:25:27.937Z,1016.87
2018-09-15T11:26:27.939Z,1016.84
2018-09-15T11:27:27.938Z,1016.91
2018-09-15T11:28:27.970Z,1016.87
2018-09-15T11:29:27.943Z,1016.83
2018-09-15T11:30:27.942Z,1016.84
2018-09-15T11:31:27.947Z,1016.88
2018-09-15T11:32:27.946Z,1016.91
2018-09-15T11:33:27.948Z,1016.91
2018-09-15T11:34:27.955Z,1016.95
2018-09-15T11:35:27.958Z,1016.90
2018-09-15T11:36:27.954Z,1016.92
2018-09-15T11:37:27.956Z,1016.91
2018-09-15T11:38:27.958Z,1016.88
2018-09-15T11:39:27.959Z,1016.88
2018-09-15T11:40:27.963Z,1016.93
2018-09-15T11:41:27.962Z,1017.01
2018-09-15T11:42:27.992Z,1017.02
2018-09-15T11:43:28.009Z,1016.95
2018-09-15T11:44:27.964Z,1016.90
2018-09-15T11:45:27.968Z,1016.89
2018-09-15T11:46:27.971Z,1016.92
2018-09-15T11:47:28.482Z,1016.89
2018-09-15T11:48:27.972Z,1016.84
2018-09-15T11:49:27.976Z,1016.96
2018-09-15T11:50:27.976Z,1016.89
2018-09-15T11:51:27.983Z,1016.96
2018-09-15T11:52:27.980Z,1016.92
2018-09-15T11:53:27.983Z,1016.95
2018-09-15T11:54:27.985Z,1016.91
2018-09-15T11:55:27.986Z,1016.96
2018-09-15T11:56:28.015Z,1016.97
2018-09-15T11:57:27.989Z,1017.00
2018-09-15T11:58:27.991Z,1016.93
2018-09-15T11:59:27.993Z,1016.97
2018-09-15T12:00:27.997Z,1016.93
2018-09-15T12:01:27.995Z,1016.82
2018-09-15T12:02:27.998Z,1016.94
2018-09-15T12:03:27.995Z,1016.94
2018-09-15T12:04:27.999Z,1016.99
2018-09-15T12:05:28.003Z,1016.99